sensor_id;sensor_type;location;lat;lon;timestamp;P1;P2;P0
77777;PMS5003;66966;-34.746;138.604;2023-05-28T00:00:58;6;4;
77777;PMS5003;66966;-34.746;138.604;2023-05-28T00:03:23;2;2;
77777;PMS5003;66966;-34.746;138.604;2023-05-28T00:05:48;3;1;
77777;PMS5003;66966;-34.746;138.604;2023-05-28T00:08:14;3;2;
77777;PMS5003;66966;-34.746;138.604;2023-05-28T00:10:39;4;1;
77777;PMS5003;66966;-34.746;138.604;2023-05-28T00:13:05;4;2;
77777;PMS5003;66966;-34.746;138.604;2023-05-28T00:15:30;3;1;
77777;PMS5003;66966;-34.746;138.604;2023-05-28T00:17:55;3;1;
77777;PMS5003;66966;-34.746;138.604;2023-05-28T00:20:21;3;2;
77777;PMS5003;66966;-34.746;138.604;2023-05-28T00:22:47;5;2;
77777;PMS5003;66966;-34.746;138.604;2023-05-28T00:25:12;4;1;
77777;PMS5003;66966;-34.746;138.604;2023-05-28T00:27:38;2;1;
77777;PMS5003;66966;-34.746;138.604;2023-05-28T00:30:04;3;2;
77777;PMS5003;66966;-34.746;138.604;2023-05-28T00:32:29;3;1;
77777;PMS5003;66966;-34.746;138.604;2023-05-28T00:34:55;4;1;
77777;PMS5003;66966;-34.746;138.604;2023-05-28T00:37:20;2;2;
77777;PMS5003;66966;-34.746;138.604;2023-05-28T00:39:46;2;1;
77777;PMS5003;66966;-34.746;138.604;2023-05-28T00:42:11;4;1;
77777;PMS5003;66966;-34.746;138.604;2023-05-28T00:44:36;2;0;
77777;PMS5003;66966;-34.746;138.604;2023-05-28T00:47:02;3;2;
77777;PMS5003;66966;-34.746;138.604;2023-05-28T00:49:28;2;2;
77777;PMS5003;66966;-34.746;138.604;2023-05-28T00:51:53;4;3;
77777;PMS5003;66966;-34.746;138.604;2023-05-28T00:54:19;2;1;
77777;PMS5003;66966;-34.746;138.604;2023-05-28T00:56:44;3;1;
77777;PMS5003;66966;-34.746;138.604;2023-05-28T00:59:10;1;1;
77777;PMS5003;66966;-34.746;138.604;2023-05-28T01:01:35;2;2;
77777;PMS5003;66966;-34.746;138.604;2023-05-28T01:04:01;2;0;
77777;PMS5003;66966;-34.746;138.604;2023-05-28T01:06:26;2;1;
77777;PMS5003;66966;-34.746;138.604;2023-05-28T01:08:52;4;1;
77777;PMS5003;66966;-34.746;138.604;2023-05-28T01:11:18;1;1;
77777;PMS5003;66966;-34.746;138.604;2023-05-28T01:13:43;3;1;
77777;PMS5003;66966;-34.746;138.604;2023-05-28T01:16:08;3;2;
77777;PMS5003;66966;-34.746;138.604;2023-05-28T01:18:33;1;0;
77777;PMS5003;66966;-34.746;138.604;2023-05-28T01:21:00;5;2;
77777;PMS5003;66966;-34.746;138.604;2023-05-28T01:23:24;1;1;
77777;PMS5003;66966;-34.746;138.604;2023-05-28T01:25:50;5;2;
77777;PMS5003;66966;-34.746;138.604;2023-05-28T01:28:15;2;0;
77777;PMS5003;66966;-34.746;138.604;2023-05-28T01:30:41;3;2;
77777;PMS5003;66966;-34.746;138.604;2023-05-28T01:33:07;2;2;
77777;PMS5003;66966;-34.746;138.604;2023-05-28T01:35:32;3;3;
77777;PMS5003;66966;-34.746;138.604;2023-05-28T01:37:59;2;1;
77777;PMS5003;66966;-34.746;138.604;2023-05-28T01:40:23;2;1;
77777;PMS5003;66966;-34.746;138.604;2023-05-28T01:42:49;5;3;
77777;PMS5003;66966;-34.746;138.604;2023-05-28T01:45:15;2;2;
77777;PMS5003;66966;-34.746;138.604;2023-05-28T01:47:40;4;3;
77777;PMS5003;66966;-34.746;138.604;2023-05-28T01:50:06;1;1;
77777;PMS5003;66966;-34.746;138.604;2023-05-28T01:52:31;1;0;
77777;PMS5003;66966;-34.746;138.604;2023-05-28T01:54:56;2;1;
77777;PMS5003;66966;-34.746;138.604;2023-05-28T01:57:22;5;2;
77777;PMS5003;66966;-34.746;138.604;2023-05-28T01:59:47;3;2;
77777;PMS5003;66966;-34.746;138.604;2023-05-28T02:02:13;2;2;
77777;PMS5003;66966;-34.746;138.604;2023-05-28T02:04:38;3;2;
77777;PMS5003;66966;-34.746;138.604;2023-05-28T02:07:04;4;2;
77777;PMS5003;66966;-34.746;138.604;2023-05-28T02:09:30;4;4;
77777;PMS5003;66966;-34.746;138.604;2023-05-28T02:11:55;4;3;
77777;PMS5003;66966;-34.746;138.604;2023-05-28T02:14:21;2;1;
77777;PMS5003;66966;-34.746;138.604;2023-05-28T02:16:46;5;2;
77777;PMS5003;66966;-34.746;138.604;2023-05-28T02:19:12;6;3;
77777;PMS5003;66966;-34.746;138.604;2023-05-28T02:21:37;3;2;
77777;PMS5003;66966;-34.746;138.604;2023-05-28T02:24:03;4;2;
77777;PMS5003;66966;-34.746;138.604;2023-05-28T02:26:28;3;1;
77777;PMS5003;66966;-34.746;138.604;2023-05-28T02:28:54;2;2;
77777;PMS5003;66966;-34.746;138.604;2023-05-28T02:31:19;1;0;
77777;PMS5003;66966;-34.746;138.604;2023-05-28T02:33:45;1;1;
77777;PMS5003;66966;-34.746;138.604;2023-05-28T02:36:10;5;3;
77777;PMS5003;66966;-34.746;138.604;2023-05-28T02:38:36;1;1;
77777;PMS5003;66966;-34.746;138.604;2023-05-28T02:41:01;3;2;
77777;PMS5003;66966;-34.746;138.604;2023-05-28T02:43:27;2;1;
77777;PMS5003;66966;-34.746;138.604;2023-05-28T02:45:52;1;1;
77777;PMS5003;66966;-34.746;138.604;2023-05-28T02:48:18;3;2;
77777;PMS5003;66966;-34.746;138.604;2023-05-28T02:50:44;8;5;
77777;PMS5003;66966;-34.746;138.604;2023-05-28T02:53:09;2;2;
77777;PMS5003;66966;-34.746;138.604;2023-05-28T02:55:34;2;2;
77777;PMS5003;66966;-34.746;138.604;2023-05-28T02:58:00;3;1;
77777;PMS5003;66966;-34.746;138.604;2023-05-28T03:00:25;3;1;
77777;PMS5003;66966;-34.746;138.604;2023-05-28T03:02:51;1;1;
77777;PMS5003;66966;-34.746;138.604;2023-05-28T03:05:16;1;0;
77777;PMS5003;66966;-34.746;138.604;2023-05-28T03:07:42;2;2;
77777;PMS5003;66966;-34.746;138.604;2023-05-28T03:10:08;2;1;
77777;PMS5003;66966;-34.746;138.604;2023-05-28T03:12:33;4;1;
77777;PMS5003;66966;-34.746;138.604;2023-05-28T03:14:59;3;0;
77777;PMS5003;66966;-34.746;138.604;2023-05-28T03:17:24;1;1;
77777;PMS5003;66966;-34.746;138.604;2023-05-28T03:19:49;2;0;
77777;PMS5003;66966;-34.746;138.604;2023-05-28T03:22:15;2;2;
77777;PMS5003;66966;-34.746;138.604;2023-05-28T03:24:40;3;2;
77777;PMS5003;66966;-34.746;138.604;2023-05-28T03:27:06;4;2;
77777;PMS5003;66966;-34.746;138.604;2023-05-28T03:29:31;2;2;
77777;PMS5003;66966;-34.746;138.604;2023-05-28T03:31:56;1;1;
77777;PMS5003;66966;-34.746;138.604;2023-05-28T03:34:22;2;1;
77777;PMS5003;66966;-34.746;138.604;2023-05-28T03:36:47;2;1;
77777;PMS5003;66966;-34.746;138.604;2023-05-28T03:39:13;2;0;
77777;PMS5003;66966;-34.746;138.604;2023-05-28T03:41:38;3;0;
77777;PMS5003;66966;-34.746;138.604;2023-05-28T03:44:04;2;1;
77777;PMS5003;66966;-34.746;138.604;2023-05-28T03:46:29;1;1;
77777;PMS5003;66966;-34.746;138.604;2023-05-28T03:48:55;6;3;
77777;PMS5003;66966;-34.746;138.604;2023-05-28T03:51:21;0;0;
77777;PMS5003;66966;-34.746;138.604;2023-05-28T03:53:46;2;1;
77777;PMS5003;66966;-34.746;138.604;2023-05-28T03:56:11;0;0;
77777;PMS5003;66966;-34.746;138.604;2023-05-28T03:58:36;1;1;
77777;PMS5003;66966;-34.746;138.604;2023-05-28T04:01:02;0;0;
77777;PMS5003;66966;-34.746;138.604;2023-05-28T04:03:28;1;1;
77777;PMS5003;66966;-34.746;138.604;2023-05-28T04:05:53;1;1;
77777;PMS5003;66966;-34.746;138.604;2023-05-28T04:08:18;0;0;
77777;PMS5003;66966;-34.746;138.604;2023-05-28T04:10:43;0;0;
77777;PMS5003;66966;-34.746;138.604;2023-05-28T04:13:09;2;1;
77777;PMS5003;66966;-34.746;138.604;2023-05-28T04:15:35;2;1;
77777;PMS5003;66966;-34.746;138.604;2023-05-28T04:18:00;2;2;
77777;PMS5003;66966;-34.746;138.604;2023-05-28T04:20:25;1;1;
77777;PMS5003;66966;-34.746;138.604;2023-05-28T04:22:51;0;0;
77777;PMS5003;66966;-34.746;138.604;2023-05-28T04:25:17;5;2;
77777;PMS5003;66966;-34.746;138.604;2023-05-28T04:27:42;3;1;
77777;PMS5003;66966;-34.746;138.604;2023-05-28T04:30:08;1;0;
77777;PMS5003;66966;-34.746;138.604;2023-05-28T04:32:33;0;0;
77777;PMS5003;66966;-34.746;138.604;2023-05-28T04:34:58;2;1;
77777;PMS5003;66966;-34.746;138.604;2023-05-28T04:37:23;1;1;
77777;PMS5003;66966;-34.746;138.604;2023-05-28T04:39:49;1;1;
77777;PMS5003;66966;-34.746;138.604;2023-05-28T04:42:15;0;0;
77777;PMS5003;66966;-34.746;138.604;2023-05-28T04:44:40;0;0;
77777;PMS5003;66966;-34.746;138.604;2023-05-28T04:47:05;1;0;
77777;PMS5003;66966;-34.746;138.604;2023-05-28T04:49:31;0;0;
77777;PMS5003;66966;-34.746;138.604;2023-05-28T04:51:56;1;1;
77777;PMS5003;66966;-34.746;138.604;2023-05-28T04:54:21;1;1;
77777;PMS5003;66966;-34.746;138.604;2023-05-28T04:56:47;1;0;
77777;PMS5003;66966;-34.746;138.604;2023-05-28T04:59:12;2;1;
77777;PMS5003;66966;-34.746;138.604;2023-05-28T05:01:38;1;0;
77777;PMS5003;66966;-34.746;138.604;2023-05-28T05:04:04;1;1;
77777;PMS5003;66966;-34.746;138.604;2023-05-28T05:06:28;1;1;
77777;PMS5003;66966;-34.746;138.604;2023-05-28T05:08:54;1;0;
77777;PMS5003;66966;-34.746;138.604;2023-05-28T05:11:19;0;0;
77777;PMS5003;66966;-34.746;138.604;2023-05-28T05:13:45;2;2;
77777;PMS5003;66966;-34.746;138.604;2023-05-28T05:16:12;1;1;
77777;PMS5003;66966;-34.746;138.604;2023-05-28T05:18:36;0;0;
77777;PMS5003;66966;-34.746;138.604;2023-05-28T05:21:01;3;1;
77777;PMS5003;66966;-34.746;138.604;2023-05-28T05:23:27;0;0;
77777;PMS5003;66966;-34.746;138.604;2023-05-28T05:25:52;1;0;
77777;PMS5003;66966;-34.746;138.604;2023-05-28T05:28:18;2;1;
77777;PMS5003;66966;-34.746;138.604;2023-05-28T05:30:43;1;1;
77777;PMS5003;66966;-34.746;138.604;2023-05-28T05:33:08;0;0;
77777;PMS5003;66966;-34.746;138.604;2023-05-28T05:35:34;2;1;
77777;PMS5003;66966;-34.746;138.604;2023-05-28T05:37:59;3;0;
77777;PMS5003;66966;-34.746;138.604;2023-05-28T05:40:25;0;0;
77777;PMS5003;66966;-34.746;138.604;2023-05-28T05:42:50;4;2;
77777;PMS5003;66966;-34.746;138.604;2023-05-28T05:45:15;1;1;
77777;PMS5003;66966;-34.746;138.604;2023-05-28T05:47:41;2;1;
77777;PMS5003;66966;-34.746;138.604;2023-05-28T05:50:06;4;1;
77777;PMS5003;66966;-34.746;138.604;2023-05-28T05:52:32;0;0;
77777;PMS5003;66966;-34.746;138.604;2023-05-28T05:54:57;2;1;
77777;PMS5003;66966;-34.746;138.604;2023-05-28T05:57:22;6;2;
77777;PMS5003;66966;-34.746;138.604;2023-05-28T05:59:48;1;1;
77777;PMS5003;66966;-34.746;138.604;2023-05-28T06:02:13;5;1;
77777;PMS5003;66966;-34.746;138.604;2023-05-28T06:04:39;1;1;
77777;PMS5003;66966;-34.746;138.604;2023-05-28T06:07:04;2;2;
77777;PMS5003;66966;-34.746;138.604;2023-05-28T06:09:31;4;2;
77777;PMS5003;66966;-34.746;138.604;2023-05-28T06:11:55;2;2;
77777;PMS5003;66966;-34.746;138.604;2023-05-28T06:14:21;3;2;
77777;PMS5003;66966;-34.746;138.604;2023-05-28T06:16:46;3;2;
77777;PMS5003;66966;-34.746;138.604;2023-05-28T06:19:12;3;2;
77777;PMS5003;66966;-34.746;138.604;2023-05-28T06:21:38;1;1;
77777;PMS5003;66966;-34.746;138.604;2023-05-28T06:24:03;3;2;
77777;PMS5003;66966;-34.746;138.604;2023-05-28T06:26:28;6;4;
77777;PMS5003;66966;-34.746;138.604;2023-05-28T06:28:54;2;2;
77777;PMS5003;66966;-34.746;138.604;2023-05-28T06:31:19;6;3;
77777;PMS5003;66966;-34.746;138.604;2023-05-28T06:33:45;5;3;
77777;PMS5003;66966;-34.746;138.604;2023-05-28T06:36:11;3;2;
77777;PMS5003;66966;-34.746;138.604;2023-05-28T06:38:36;4;2;
77777;PMS5003;66966;-34.746;138.604;2023-05-28T06:41:01;3;1;
77777;PMS5003;66966;-34.746;138.604;2023-05-28T06:43:27;4;3;
77777;PMS5003;66966;-34.746;138.604;2023-05-28T06:45:53;4;4;
77777;PMS5003;66966;-34.746;138.604;2023-05-28T06:48:18;4;3;
77777;PMS5003;66966;-34.746;138.604;2023-05-28T06:50:44;4;2;
77777;PMS5003;66966;-34.746;138.604;2023-05-28T06:53:09;0;0;
77777;PMS5003;66966;-34.746;138.604;2023-05-28T06:55:35;0;0;
77777;PMS5003;66966;-34.746;138.604;2023-05-28T06:58:01;3;2;
77777;PMS5003;66966;-34.746;138.604;2023-05-28T07:00:26;1;0;
77777;PMS5003;66966;-34.746;138.604;2023-05-28T07:02:51;2;1;
77777;PMS5003;66966;-34.746;138.604;2023-05-28T07:05:17;2;2;
77777;PMS5003;66966;-34.746;138.604;2023-05-28T07:07:42;3;2;
77777;PMS5003;66966;-34.746;138.604;2023-05-28T07:10:08;3;2;
77777;PMS5003;66966;-34.746;138.604;2023-05-28T07:12:33;3;2;
77777;PMS5003;66966;-34.746;138.604;2023-05-28T07:14:59;4;2;
77777;PMS5003;66966;-34.746;138.604;2023-05-28T07:17:24;4;2;
77777;PMS5003;66966;-34.746;138.604;2023-05-28T07:19:50;6;5;
77777;PMS5003;66966;-34.746;138.604;2023-05-28T07:22:16;3;2;
77777;PMS5003;66966;-34.746;138.604;2023-05-28T07:24:41;3;3;
77777;PMS5003;66966;-34.746;138.604;2023-05-28T07:27:06;3;2;
77777;PMS5003;66966;-34.746;138.604;2023-05-28T07:29:32;4;2;
77777;PMS5003;66966;-34.746;138.604;2023-05-28T07:31:57;2;1;
77777;PMS5003;66966;-34.746;138.604;2023-05-28T07:34:23;2;2;
77777;PMS5003;66966;-34.746;138.604;2023-05-28T07:36:49;2;0;
77777;PMS5003;66966;-34.746;138.604;2023-05-28T07:39:14;0;0;
77777;PMS5003;66966;-34.746;138.604;2023-05-28T07:41:40;1;1;
77777;PMS5003;66966;-34.746;138.604;2023-05-28T07:44:06;3;1;
77777;PMS5003;66966;-34.746;138.604;2023-05-28T07:46:31;3;1;
77777;PMS5003;66966;-34.746;138.604;2023-05-28T07:48:57;1;0;
77777;PMS5003;66966;-34.746;138.604;2023-05-28T07:51:22;0;0;
77777;PMS5003;66966;-34.746;138.604;2023-05-28T07:53:47;1;1;
77777;PMS5003;66966;-34.746;138.604;2023-05-28T07:56:13;0;0;
77777;PMS5003;66966;-34.746;138.604;2023-05-28T07:58:38;0;0;
77777;PMS5003;66966;-34.746;138.604;2023-05-28T08:01:05;1;1;
77777;PMS5003;66966;-34.746;138.604;2023-05-28T08:03:30;1;1;
77777;PMS5003;66966;-34.746;138.604;2023-05-28T08:05:55;1;0;
77777;PMS5003;66966;-34.746;138.604;2023-05-28T08:08:21;0;0;
77777;PMS5003;66966;-34.746;138.604;2023-05-28T08:10:46;1;1;
77777;PMS5003;66966;-34.746;138.604;2023-05-28T08:13:12;0;0;
77777;PMS5003;66966;-34.746;138.604;2023-05-28T08:15:37;1;1;
77777;PMS5003;66966;-34.746;138.604;2023-05-28T08:18:03;0;0;
77777;PMS5003;66966;-34.746;138.604;2023-05-28T08:20:28;1;0;
77777;PMS5003;66966;-34.746;138.604;2023-05-28T08:22:54;2;2;
77777;PMS5003;66966;-34.746;138.604;2023-05-28T08:25:20;1;1;
77777;PMS5003;66966;-34.746;138.604;2023-05-28T08:27:45;1;1;
77777;PMS5003;66966;-34.746;138.604;2023-05-28T08:30:11;0;0;
77777;PMS5003;66966;-34.746;138.604;2023-05-28T08:32:36;1;1;
77777;PMS5003;66966;-34.746;138.604;2023-05-28T08:35:01;0;0;
77777;PMS5003;66966;-34.746;138.604;2023-05-28T08:37:27;2;1;
77777;PMS5003;66966;-34.746;138.604;2023-05-28T08:39:52;3;1;
77777;PMS5003;66966;-34.746;138.604;2023-05-28T08:42:18;1;1;
77777;PMS5003;66966;-34.746;138.604;2023-05-28T08:44:43;1;0;
77777;PMS5003;66966;-34.746;138.604;2023-05-28T08:47:09;2;2;
77777;PMS5003;66966;-34.746;138.604;2023-05-28T08:49:37;1;1;
77777;PMS5003;66966;-34.746;138.604;2023-05-28T08:52:01;4;2;
77777;PMS5003;66966;-34.746;138.604;2023-05-28T08:54:25;0;0;
77777;PMS5003;66966;-34.746;138.604;2023-05-28T08:56:51;3;2;
77777;PMS5003;66966;-34.746;138.604;2023-05-28T08:59:17;0;0;
77777;PMS5003;66966;-34.746;138.604;2023-05-28T09:01:43;0;0;
77777;PMS5003;66966;-34.746;138.604;2023-05-28T09:04:08;1;1;
77777;PMS5003;66966;-34.746;138.604;2023-05-28T09:06:33;2;2;
77777;PMS5003;66966;-34.746;138.604;2023-05-28T09:08:59;1;1;
77777;PMS5003;66966;-34.746;138.604;2023-05-28T09:11:24;1;0;
77777;PMS5003;66966;-34.746;138.604;2023-05-28T09:13:50;4;1;
77777;PMS5003;66966;-34.746;138.604;2023-05-28T09:16:19;1;1;
77777;PMS5003;66966;-34.746;138.604;2023-05-28T09:18:41;2;2;
77777;PMS5003;66966;-34.746;138.604;2023-05-28T09:21:07;15;12;
77777;PMS5003;66966;-34.746;138.604;2023-05-28T09:23:32;10;8;
77777;PMS5003;66966;-34.746;138.604;2023-05-28T09:25:58;5;4;
77777;PMS5003;66966;-34.746;138.604;2023-05-28T09:28:25;8;8;
77777;PMS5003;66966;-34.746;138.604;2023-05-28T09:30:48;10;9;
77777;PMS5003;66966;-34.746;138.604;2023-05-28T09:33:14;10;10;
77777;PMS5003;66966;-34.746;138.604;2023-05-28T09:35:39;23;21;
77777;PMS5003;66966;-34.746;138.604;2023-05-28T09:38:05;12;12;
77777;PMS5003;66966;-34.746;138.604;2023-05-28T09:40:30;4;2;
77777;PMS5003;66966;-34.746;138.604;2023-05-28T09:42:56;4;3;
77777;PMS5003;66966;-34.746;138.604;2023-05-28T09:45:22;4;2;
77777;PMS5003;66966;-34.746;138.604;2023-05-28T09:47:47;3;3;
77777;PMS5003;66966;-34.746;138.604;2023-05-28T09:50:13;2;1;
77777;PMS5003;66966;-34.746;138.604;2023-05-28T09:52:38;4;3;
77777;PMS5003;66966;-34.746;138.604;2023-05-28T09:55:04;6;4;
77777;PMS5003;66966;-34.746;138.604;2023-05-28T09:57:30;4;4;
77777;PMS5003;66966;-34.746;138.604;2023-05-28T09:59:54;11;8;
77777;PMS5003;66966;-34.746;138.604;2023-05-28T10:02:22;11;8;
77777;PMS5003;66966;-34.746;138.604;2023-05-28T10:04:46;9;9;
77777;PMS5003;66966;-34.746;138.604;2023-05-28T10:07:11;12;11;
77777;PMS5003;66966;-34.746;138.604;2023-05-28T10:09:37;6;3;
77777;PMS5003;66966;-34.746;138.604;2023-05-28T10:12:04;2;2;
77777;PMS5003;66966;-34.746;138.604;2023-05-28T10:14:28;3;2;
77777;PMS5003;66966;-34.746;138.604;2023-05-28T10:16:53;1;1;
77777;PMS5003;66966;-34.746;138.604;2023-05-28T10:19:19;4;3;
77777;PMS5003;66966;-34.746;138.604;2023-05-28T10:21:44;2;1;
77777;PMS5003;66966;-34.746;138.604;2023-05-28T10:24:10;4;3;
77777;PMS5003;66966;-34.746;138.604;2023-05-28T10:26:36;6;5;
77777;PMS5003;66966;-34.746;138.604;2023-05-28T10:29:01;6;5;
77777;PMS5003;66966;-34.746;138.604;2023-05-28T10:31:26;4;3;
77777;PMS5003;66966;-34.746;138.604;2023-05-28T10:33:52;4;2;
77777;PMS5003;66966;-34.746;138.604;2023-05-28T10:36:17;2;2;
77777;PMS5003;66966;-34.746;138.604;2023-05-28T10:38:43;1;0;
77777;PMS5003;66966;-34.746;138.604;2023-05-28T10:41:08;4;2;
77777;PMS5003;66966;-34.746;138.604;2023-05-28T10:46:00;3;2;
77777;PMS5003;66966;-34.746;138.604;2023-05-28T10:48:25;1;1;
77777;PMS5003;66966;-34.746;138.604;2023-05-28T10:50:56;2;2;
77777;PMS5003;66966;-34.746;138.604;2023-05-28T10:53:17;1;0;
77777;PMS5003;66966;-34.746;138.604;2023-05-28T10:55:47;2;2;
77777;PMS5003;66966;-34.746;138.604;2023-05-28T10:58:07;5;3;
77777;PMS5003;66966;-34.746;138.604;2023-05-28T11:00:34;4;3;
77777;PMS5003;66966;-34.746;138.604;2023-05-28T11:02:58;5;4;
77777;PMS5003;66966;-34.746;138.604;2023-05-28T11:05:24;3;3;
77777;PMS5003;66966;-34.746;138.604;2023-05-28T11:07:49;6;5;
77777;PMS5003;66966;-34.746;138.604;2023-05-28T11:10:15;5;3;
77777;PMS5003;66966;-34.746;138.604;2023-05-28T11:12:41;4;4;
77777;PMS5003;66966;-34.746;138.604;2023-05-28T11:15:08;3;3;
77777;PMS5003;66966;-34.746;138.604;2023-05-28T11:17:36;3;3;
77777;PMS5003;66966;-34.746;138.604;2023-05-28T11:19:57;3;3;
77777;PMS5003;66966;-34.746;138.604;2023-05-28T11:22:23;4;4;
77777;PMS5003;66966;-34.746;138.604;2023-05-28T11:24:54;6;5;
77777;PMS5003;66966;-34.746;138.604;2023-05-28T11:27:14;6;5;
77777;PMS5003;66966;-34.746;138.604;2023-05-28T11:29:39;5;4;
77777;PMS5003;66966;-34.746;138.604;2023-05-28T11:32:06;6;6;
77777;PMS5003;66966;-34.746;138.604;2023-05-28T11:34:30;4;3;
77777;PMS5003;66966;-34.746;138.604;2023-05-28T11:36:56;4;3;
77777;PMS5003;66966;-34.746;138.604;2023-05-28T11:39:21;6;5;
77777;PMS5003;66966;-34.746;138.604;2023-05-28T11:41:48;3;3;
77777;PMS5003;66966;-34.746;138.604;2023-05-28T11:44:19;4;2;
77777;PMS5003;66966;-34.746;138.604;2023-05-28T11:46:38;2;2;
77777;PMS5003;66966;-34.746;138.604;2023-05-28T11:49:04;2;0;
77777;PMS5003;66966;-34.746;138.604;2023-05-28T11:51:29;2;1;
77777;PMS5003;66966;-34.746;138.604;2023-05-28T11:53:55;1;1;
77777;PMS5003;66966;-34.746;138.604;2023-05-28T11:56:21;2;0;
77777;PMS5003;66966;-34.746;138.604;2023-05-28T11:58:46;1;1;
77777;PMS5003;66966;-34.746;138.604;2023-05-28T12:01:13;1;0;
77777;PMS5003;66966;-34.746;138.604;2023-05-28T12:03:37;1;1;
77777;PMS5003;66966;-34.746;138.604;2023-05-28T12:06:03;1;0;
77777;PMS5003;66966;-34.746;138.604;2023-05-28T12:08:28;1;1;
77777;PMS5003;66966;-34.746;138.604;2023-05-28T12:13:19;2;1;
77777;PMS5003;66966;-34.746;138.604;2023-05-28T12:15:45;0;0;
77777;PMS5003;66966;-34.746;138.604;2023-05-28T12:18:10;3;2;
77777;PMS5003;66966;-34.746;138.604;2023-05-28T12:20:37;9;7;
77777;PMS5003;66966;-34.746;138.604;2023-05-28T12:23:03;3;3;
77777;PMS5003;66966;-34.746;138.604;2023-05-28T12:25:27;6;6;
77777;PMS5003;66966;-34.746;138.604;2023-05-28T12:27:53;9;8;
77777;PMS5003;66966;-34.746;138.604;2023-05-28T12:30:18;9;9;
77777;PMS5003;66966;-34.746;138.604;2023-05-28T12:32:43;5;5;
77777;PMS5003;66966;-34.746;138.604;2023-05-28T12:35:09;6;6;
77777;PMS5003;66966;-34.746;138.604;2023-05-28T12:37:34;8;6;
77777;PMS5003;66966;-34.746;138.604;2023-05-28T12:40:00;6;5;
77777;PMS5003;66966;-34.746;138.604;2023-05-28T12:42:26;4;4;
77777;PMS5003;66966;-34.746;138.604;2023-05-28T12:44:51;5;5;
77777;PMS5003;66966;-34.746;138.604;2023-05-28T12:47:17;5;5;
77777;PMS5003;66966;-34.746;138.604;2023-05-28T12:49:42;5;5;
77777;PMS5003;66966;-34.746;138.604;2023-05-28T12:52:08;7;6;
77777;PMS5003;66966;-34.746;138.604;2023-05-28T12:54:33;5;5;
77777;PMS5003;66966;-34.746;138.604;2023-05-28T12:56:59;6;5;
77777;PMS5003;66966;-34.746;138.604;2023-05-28T12:59:25;4;4;
77777;PMS5003;66966;-34.746;138.604;2023-05-28T13:01:50;6;3;
77777;PMS5003;66966;-34.746;138.604;2023-05-28T13:04:16;5;4;
77777;PMS5003;66966;-34.746;138.604;2023-05-28T13:06:41;6;4;
77777;PMS5003;66966;-34.746;138.604;2023-05-28T13:09:07;3;3;
77777;PMS5003;66966;-34.746;138.604;2023-05-28T13:11:32;1;1;
77777;PMS5003;66966;-34.746;138.604;2023-05-28T13:13:58;2;1;
77777;PMS5003;66966;-34.746;138.604;2023-05-28T13:16:24;1;1;
77777;PMS5003;66966;-34.746;138.604;2023-05-28T13:18:49;2;1;
77777;PMS5003;66966;-34.746;138.604;2023-05-28T13:21:14;1;1;
77777;PMS5003;66966;-34.746;138.604;2023-05-28T13:23:40;0;0;
77777;PMS5003;66966;-34.746;138.604;2023-05-28T13:26:06;4;4;
77777;PMS5003;66966;-34.746;138.604;2023-05-28T13:28:32;1;1;
77777;PMS5003;66966;-34.746;138.604;2023-05-28T13:30:57;4;2;
77777;PMS5003;66966;-34.746;138.604;2023-05-28T13:33:22;1;1;
77777;PMS5003;66966;-34.746;138.604;2023-05-28T13:35:48;1;1;
77777;PMS5003;66966;-34.746;138.604;2023-05-28T13:38:13;4;3;
77777;PMS5003;66966;-34.746;138.604;2023-05-28T13:40:39;4;3;
77777;PMS5003;66966;-34.746;138.604;2023-05-28T13:43:04;9;7;
77777;PMS5003;66966;-34.746;138.604;2023-05-28T13:45:30;7;6;
77777;PMS5003;66966;-34.746;138.604;2023-05-28T13:47:55;7;6;
77777;PMS5003;66966;-34.746;138.604;2023-05-28T13:50:21;5;5;
77777;PMS5003;66966;-34.746;138.604;2023-05-28T13:52:47;3;2;
77777;PMS5003;66966;-34.746;138.604;2023-05-28T13:55:12;4;3;
77777;PMS5003;66966;-34.746;138.604;2023-05-28T13:57:38;3;2;
77777;PMS5003;66966;-34.746;138.604;2023-05-28T14:00:03;3;3;
77777;PMS5003;66966;-34.746;138.604;2023-05-28T14:02:29;3;3;
77777;PMS5003;66966;-34.746;138.604;2023-05-28T14:04:55;5;4;
77777;PMS5003;66966;-34.746;138.604;2023-05-28T14:07:20;6;5;
77777;PMS5003;66966;-34.746;138.604;2023-05-28T14:09:45;7;5;
77777;PMS5003;66966;-34.746;138.604;2023-05-28T14:12:11;2;2;
77777;PMS5003;66966;-34.746;138.604;2023-05-28T14:14:36;3;3;
77777;PMS5003;66966;-34.746;138.604;2023-05-28T14:17:02;4;4;
77777;PMS5003;66966;-34.746;138.604;2023-05-28T14:19:27;1;1;
77777;PMS5003;66966;-34.746;138.604;2023-05-28T14:21:53;3;1;
77777;PMS5003;66966;-34.746;138.604;2023-05-28T14:24:18;1;1;
77777;PMS5003;66966;-34.746;138.604;2023-05-28T14:26:44;3;3;
77777;PMS5003;66966;-34.746;138.604;2023-05-28T14:29:10;4;3;
77777;PMS5003;66966;-34.746;138.604;2023-05-28T14:31:35;3;3;
77777;PMS5003;66966;-34.746;138.604;2023-05-28T14:34:01;4;3;
77777;PMS5003;66966;-34.746;138.604;2023-05-28T14:36:26;3;3;
77777;PMS5003;66966;-34.746;138.604;2023-05-28T14:38:52;1;1;
77777;PMS5003;66966;-34.746;138.604;2023-05-28T14:41:18;3;2;
77777;PMS5003;66966;-34.746;138.604;2023-05-28T14:43:43;2;2;
77777;PMS5003;66966;-34.746;138.604;2023-05-28T14:46:08;2;2;
77777;PMS5003;66966;-34.746;138.604;2023-05-28T14:48:34;2;1;
77777;PMS5003;66966;-34.746;138.604;2023-05-28T14:50:59;2;2;
77777;PMS5003;66966;-34.746;138.604;2023-05-28T14:53:26;1;1;
77777;PMS5003;66966;-34.746;138.604;2023-05-28T14:55:50;2;2;
77777;PMS5003;66966;-34.746;138.604;2023-05-28T14:58:16;3;2;
77777;PMS5003;66966;-34.746;138.604;2023-05-28T15:00:42;2;2;
77777;PMS5003;66966;-34.746;138.604;2023-05-28T15:03:07;1;1;
77777;PMS5003;66966;-34.746;138.604;2023-05-28T15:05:33;2;1;
77777;PMS5003;66966;-34.746;138.604;2023-05-28T15:07:58;4;3;
77777;PMS5003;66966;-34.746;138.604;2023-05-28T15:10:23;2;1;
77777;PMS5003;66966;-34.746;138.604;2023-05-28T15:12:49;2;1;
77777;PMS5003;66966;-34.746;138.604;2023-05-28T15:15:15;2;0;
77777;PMS5003;66966;-34.746;138.604;2023-05-28T15:17:40;0;0;
77777;PMS5003;66966;-34.746;138.604;2023-05-28T15:20:06;4;4;
77777;PMS5003;66966;-34.746;138.604;2023-05-28T15:22:31;1;1;
77777;PMS5003;66966;-34.746;138.604;2023-05-28T15:24:57;1;1;
77777;PMS5003;66966;-34.746;138.604;2023-05-28T15:27:22;1;1;
77777;PMS5003;66966;-34.746;138.604;2023-05-28T15:29:48;1;1;
77777;PMS5003;66966;-34.746;138.604;2023-05-28T15:32:13;0;0;
77777;PMS5003;66966;-34.746;138.604;2023-05-28T15:34:39;1;1;
77777;PMS5003;66966;-34.746;138.604;2023-05-28T15:37:04;2;2;
77777;PMS5003;66966;-34.746;138.604;2023-05-28T15:39:30;0;0;
77777;PMS5003;66966;-34.746;138.604;2023-05-28T15:41:55;1;0;
77777;PMS5003;66966;-34.746;138.604;2023-05-28T15:44:21;1;1;
77777;PMS5003;66966;-34.746;138.604;2023-05-28T15:46:46;1;0;
77777;PMS5003;66966;-34.746;138.604;2023-05-28T15:49:12;2;0;
77777;PMS5003;66966;-34.746;138.604;2023-05-28T15:51:37;1;1;
77777;PMS5003;66966;-34.746;138.604;2023-05-28T15:54:04;2;1;